createdAt,value
2022-07-28T00:00:35.317Z,99741.22
2022-07-28T00:03:04.032Z,99745.94
2022-07-28T00:05:32.406Z,99745.09
2022-07-28T00:08:02.650Z,99745.25
2022-07-28T00:10:32.419Z,99745.59
2022-07-28T00:13:00.990Z,99742.22
2022-07-28T00:15:29.408Z,99745.91
2022-07-28T00:17:58.936Z,99747.59
2022-07-28T00:20:28.036Z,99745.25
2022-07-28T00:22:56.359Z,99733.16
2022-07-28T00:25:24.668Z,99727.75
2022-07-28T00:27:53.808Z,99734.34
2022-07-28T00:30:24.546Z,99732.16
2022-07-28T00:32:52.736Z,99728.09
2022-07-28T00:35:30.286Z,99722.22
2022-07-28T00:37:59.355Z,99717.72
2022-07-28T00:40:48.579Z,99728.09
2022-07-28T00:43:16.843Z,99713.66
2022-07-28T00:45:45.122Z,99724.59
2022-07-28T00:48:13.269Z,99723.41
2022-07-28T00:50:43.441Z,99723.41
2022-07-28T00:53:11.651Z,99711.66
2022-07-28T00:56:04.351Z,99709.66
2022-07-28T00:58:29.901Z,99706.28
2022-07-28T01:00:58.549Z,99718.72
2022-07-28T01:03:28.158Z,99714.00
2022-07-28T01:06:06.313Z,99719.72
2022-07-28T01:08:50.589Z,99723.75
2022-07-28T01:11:27.533Z,99730.97
2022-07-28T01:14:04.014Z,99729.75
2022-07-28T01:16:32.290Z,99725.41
2022-07-28T01:19:11.010Z,99728.75
2022-07-28T01:21:42.869Z,99727.03
2022-07-28T01:24:20.895Z,99729.72
2022-07-28T01:26:59.566Z,99732.69
2022-07-28T01:30:10.628Z,99734.34
2022-07-28T01:32:44.175Z,99736.69
2022-07-28T01:35:17.183Z,99735.34
2022-07-28T01:37:48.786Z,99739.84
2022-07-28T01:40:19.106Z,99733.97
2022-07-28T01:42:50.602Z,99726.75
2022-07-28T01:45:21.632Z,99734.59
2022-07-28T01:47:52.956Z,99733.00
2022-07-28T01:50:23.967Z,99734.19
2022-07-28T01:52:53.027Z,99737.41
2022-07-28T01:55:23.629Z,99742.06
2022-07-28T01:57:54.586Z,99739.69
2022-07-28T02:00:25.096Z,99736.63
2022-07-28T02:02:59.202Z,99725.31
2022-07-28T02:05:28.977Z,99725.78
2022-07-28T02:08:00.126Z,99721.63
2022-07-28T02:10:30.227Z,99705.50
2022-07-28T02:13:01.453Z,99718.94
2022-07-28T02:15:32.676Z,99722.94
2022-07-28T02:18:02.840Z,99720.22
2022-07-28T02:20:31.546Z,99726.94
2022-07-28T02:22:59.917Z,99718.72
2022-07-28T02:25:30.963Z,99727.09
2022-07-28T02:28:03.378Z,99721.88
2022-07-28T02:30:34.419Z,99728.41
2022-07-28T02:33:10.160Z,99717.78
2022-07-28T02:35:46.145Z,99723.31
2022-07-28T02:38:24.250Z,99724.44
2022-07-28T02:40:55.765Z,99732.06
2022-07-28T02:43:49.064Z,99731.69
2022-07-28T02:46:20.376Z,99739.19
2022-07-28T02:48:53.947Z,99736.38
2022-07-28T02:51:25.051Z,99736.22
2022-07-28T02:53:55.082Z,99743.13
2022-07-28T02:56:23.880Z,99737.41
2022-07-28T02:58:54.014Z,99748.66
2022-07-28T03:01:23.396Z,99743.19
2022-07-28T03:03:55.373Z,99745.22
2022-07-28T03:06:26.451Z,99753.31
2022-07-28T03:08:54.897Z,99751.31
2022-07-28T03:11:23.013Z,99759.75
2022-07-28T03:13:51.133Z,99746.66
2022-07-28T03:16:19.298Z,99757.97
2022-07-28T03:18:47.474Z,99761.28
2022-07-28T03:21:16.995Z,99756.16
2022-07-28T03:23:49.307Z,99762.38
2022-07-28T03:26:24.756Z,99748.47
2022-07-28T03:28:54.565Z,99752.44
2022-07-28T03:31:24.001Z,99765.97
2022-07-28T03:33:53.010Z,99769.34
2022-07-28T03:36:30.567Z,99764.13
2022-07-28T03:39:03.267Z,99769.22
2022-07-28T03:41:33.183Z,99774.69
2022-07-28T03:44:03.394Z,99758.78
2022-07-28T03:46:31.735Z,99781.44
2022-07-28T03:49:00.155Z,99781.00
2022-07-28T03:51:30.010Z,99781.84
2022-07-28T03:53:58.140Z,99786.91
2022-07-28T03:56:26.282Z,99765.94
2022-07-28T03:58:54.482Z,99765.22
2022-07-28T04:01:22.745Z,99790.31
2022-07-28T04:03:51.014Z,99786.03
2022-07-28T04:06:19.284Z,99787.81
2022-07-28T04:08:48.851Z,99790.25
2022-07-28T04:11:16.962Z,99786.88
2022-07-28T04:13:45.174Z,99781.84
2022-07-28T04:16:13.418Z,99782.19
2022-07-28T04:18:42.386Z,99786.97
2022-07-28T04:21:11.041Z,99769.41
2022-07-28T04:23:39.230Z,99767.09
2022-07-28T04:26:09.355Z,99792.53
2022-07-28T04:28:37.508Z,99782.16
2022-07-28T04:31:05.712Z,99784.50
2022-07-28T04:33:33.915Z,99796.59
2022-07-28T04:36:02.374Z,99802.19
2022-07-28T04:38:30.879Z,99796.13
2022-07-28T04:40:59.073Z,99796.28
2022-07-28T04:43:28.566Z,99799.28
2022-07-28T04:45:56.798Z,99799.59
2022-07-28T04:48:25.748Z,99802.97
2022-07-28T04:50:53.985Z,99807.50
2022-07-28T04:53:22.877Z,99803.59
2022-07-28T04:55:53.416Z,99807.47
2022-07-28T04:58:23.148Z,99805.63
2022-07-28T05:00:53.379Z,99811.03
2022-07-28T05:03:22.364Z,99805.00
2022-07-28T05:05:54.392Z,99804.88
2022-07-28T05:10:55.679Z,99812.78
2022-07-28T05:13:23.880Z,99810.69
2022-07-28T05:15:53.371Z,99807.31
2022-07-28T05:18:21.483Z,99811.16
2022-07-28T05:20:49.628Z,99810.72
2022-07-28T05:23:17.846Z,99825.00
2022-07-28T05:25:46.093Z,99812.28
2022-07-28T05:28:14.214Z,99813.63
2022-07-28T05:30:43.566Z,99821.53
2022-07-28T05:33:13.064Z,99821.03
2022-07-28T05:35:41.229Z,99823.78
2022-07-28T05:38:11.136Z,99832.13
2022-07-28T05:40:39.511Z,99836.25
2022-07-28T05:43:07.649Z,99828.78
2022-07-28T05:45:35.812Z,99834.13
2022-07-28T05:48:04.018Z,99846.00
2022-07-28T05:50:33.941Z,99843.84
2022-07-28T05:53:02.092Z,99843.50
2022-07-28T05:55:30.525Z,99847.34
2022-07-28T05:58:00.343Z,99848.63
2022-07-28T06:00:29.210Z,99848.44
2022-07-28T06:03:02.064Z,99849.19
2022-07-28T06:05:31.670Z,99847.16
2022-07-28T06:08:01.899Z,99850.25
2022-07-28T06:10:51.891Z,99856.91
2022-07-28T06:13:20.672Z,99868.78
2022-07-28T06:15:49.135Z,99868.72
2022-07-28T06:18:17.489Z,99868.38
2022-07-28T06:20:47.451Z,99859.50
2022-07-28T06:23:20.604Z,99867.97
2022-07-28T06:25:49.297Z,99848.22
2022-07-28T06:28:18.913Z,99857.25
2022-07-28T06:30:48.303Z,99866.59
2022-07-28T06:33:18.368Z,99869.03
2022-07-28T06:35:51.386Z,99869.81
2022-07-28T06:38:21.531Z,99874.41
2022-07-28T06:40:49.724Z,99866.50
2022-07-28T06:43:17.837Z,99881.19
2022-07-28T06:45:46.329Z,99879.75
2022-07-28T06:48:14.951Z,99871.72
2022-07-28T06:50:43.382Z,99877.22
2022-07-28T06:53:11.631Z,99875.81
2022-07-28T06:55:41.421Z,99867.75
2022-07-28T06:58:10.082Z,99875.25
2022-07-28T07:00:38.444Z,99879.97
2022-07-28T07:03:09.558Z,99877.47
2022-07-28T07:05:38.119Z,99869.31
2022-07-28T07:08:07.510Z,99876.84
2022-07-28T07:10:36.357Z,99876.53
2022-07-28T07:13:05.885Z,99872.56
2022-07-28T07:15:34.857Z,99879.28
2022-07-28T07:18:03.239Z,99874.09
2022-07-28T07:20:31.368Z,99881.41
2022-07-28T07:22:59.516Z,99877.78
2022-07-28T07:25:27.643Z,99891.22
2022-07-28T07:27:55.851Z,99881.69
2022-07-28T07:30:25.468Z,99893.94
2022-07-28T07:32:53.653Z,99887.31
2022-07-28T07:35:21.745Z,99887.44
2022-07-28T07:37:49.920Z,99886.50
2022-07-28T07:40:18.252Z,99883.81
2022-07-28T07:42:46.415Z,99884.66
2022-07-28T07:45:15.124Z,99881.97
2022-07-28T07:47:44.651Z,99879.13
2022-07-28T07:50:12.858Z,99882.00
2022-07-28T07:52:40.977Z,99885.09
2022-07-28T07:55:10.148Z,99878.59
2022-07-28T07:57:38.330Z,99876.78
2022-07-28T08:00:07.419Z,99882.22
2022-07-28T08:02:35.827Z,99881.41
2022-07-28T08:05:06.191Z,99874.81
2022-07-28T08:07:36.639Z,99884.50
2022-07-28T08:10:05.956Z,99883.31
2022-07-28T08:12:34.199Z,99881.38
2022-07-28T08:15:02.395Z,99880.97
2022-07-28T08:17:31.054Z,99870.22
2022-07-28T08:19:59.846Z,99873.56
2022-07-28T08:22:29.474Z,99881.91
2022-07-28T08:24:57.666Z,99896.25
2022-07-28T08:27:25.834Z,99880.44
2022-07-28T08:29:54.012Z,99877.84
2022-07-28T08:32:22.129Z,99877.28
2022-07-28T08:34:56.587Z,99873.69
2022-07-28T08:37:34.547Z,99875.63
2022-07-28T08:40:04.280Z,99885.56
2022-07-28T08:42:40.188Z,99886.38
2022-07-28T08:45:09.466Z,99884.13
2022-07-28T08:47:58.699Z,99884.94
2022-07-28T08:50:26.306Z,99883.22
2022-07-28T08:52:58.799Z,99878.47
2022-07-28T08:55:31.569Z,99882.06
2022-07-28T08:58:01.049Z,99881.19
2022-07-28T09:00:29.564Z,99883.66
2022-07-28T09:02:58.090Z,99874.81
2022-07-28T09:05:27.401Z,99881.78
2022-07-28T09:07:56.956Z,99877.22
2022-07-28T09:10:25.607Z,99876.56
2022-07-28T09:12:53.962Z,99877.34
2022-07-28T09:15:22.259Z,99864.03
2022-07-28T09:17:50.397Z,99871.69
2022-07-28T09:20:18.660Z,99859.03
2022-07-28T09:22:59.436Z,99861.22
2022-07-28T09:25:30.764Z,99868.22
2022-07-28T09:28:07.969Z,99864.78
2022-07-28T09:30:37.967Z,99858.56
2022-07-28T09:33:41.291Z,99855.53
2022-07-28T09:36:16.391Z,99861.84
2022-07-28T09:38:48.366Z,99853.69
2022-07-28T09:41:19.026Z,99853.41
2022-07-28T09:43:52.492Z,99855.25
2022-07-28T09:46:24.484Z,99845.47
2022-07-28T09:48:56.692Z,99847.59
2022-07-28T09:51:27.229Z,99845.34
2022-07-28T09:54:09.265Z,99839.28
2022-07-28T09:56:37.654Z,99844.75
2022-07-28T09:59:08.570Z,99844.22
2022-07-28T10:01:52.291Z,99837.59
2022-07-28T10:04:30.993Z,99833.94
2022-07-28T10:07:05.665Z,99829.63
2022-07-28T10:09:35.310Z,99834.44
2022-07-28T10:12:21.471Z,99829.72
2022-07-28T10:14:51.978Z,99831.66
2022-07-28T10:17:29.437Z,99829.34
2022-07-28T10:19:59.852Z,99813.13
2022-07-28T10:22:32.249Z,99825.09
2022-07-28T10:25:03.443Z,99816.00
2022-07-28T10:27:33.544Z,99813.28
2022-07-28T10:30:06.053Z,99822.47
2022-07-28T10:32:39.632Z,99822.03
2022-07-28T10:35:12.344Z,99819.06
2022-07-28T10:37:46.930Z,99792.41
2022-07-28T10:40:18.568Z,99810.41
2022-07-28T10:42:46.759Z,99803.97
2022-07-28T10:45:15.625Z,99806.47
2022-07-28T10:47:45.218Z,99807.47
2022-07-28T10:50:14.012Z,99804.13
2022-07-28T10:52:49.862Z,99793.13
2022-07-28T10:55:31.601Z,99797.88
2022-07-28T10:58:11.588Z,99791.31
2022-07-28T11:00:56.153Z,99788.13
2022-07-28T11:03:40.644Z,99792.00
2022-07-28T11:06:37.118Z,99790.94
2022-07-28T11:09:25.494Z,99785.47
2022-07-28T11:11:58.010Z,99790.69
2022-07-28T11:14:34.034Z,99778.09
2022-07-28T11:17:32.948Z,99776.47
2022-07-28T11:20:27.001Z,99770.69
2022-07-28T11:22:51.982Z,99768.50
2022-07-28T11:25:22.132Z,99778.22
2022-07-28T11:28:07.245Z,99770.22
2022-07-28T11:30:54.990Z,99773.47
2022-07-28T11:33:25.151Z,99778.63
2022-07-28T11:35:58.776Z,99775.13
2022-07-28T11:38:28.058Z,99770.47
2022-07-28T11:40:57.844Z,99769.78
2022-07-28T11:43:37.485Z,99772.81
2022-07-28T11:46:25.222Z,99771.97
2022-07-28T11:49:23.042Z,99769.47
2022-07-28T11:52:24.501Z,99764.97
2022-07-28T11:54:55.424Z,99768.13
2022-07-28T11:57:26.189Z,99761.56
2022-07-28T12:00:01.747Z,99760.75
2022-07-28T12:02:32.298Z,99758.13
2022-07-28T12:05:10.956Z,99753.59
2022-07-28T12:07:41.846Z,99749.84
2022-07-28T12:10:51.804Z,99746.03
2022-07-28T12:13:15.121Z,99749.13
2022-07-28T12:15:51.606Z,99754.69
2022-07-28T12:18:19.792Z,99745.69
2022-07-28T12:20:50.082Z,99745.09
2022-07-28T12:23:18.771Z,99740.19
2022-07-28T12:25:48.763Z,99742.44
2022-07-28T12:28:19.206Z,99756.81
2022-07-28T12:30:49.658Z,99746.00
2022-07-28T12:33:20.232Z,99738.44
2022-07-28T12:35:50.594Z,99743.47
2022-07-28T12:38:19.244Z,99736.84
2022-07-28T12:40:48.269Z,99731.91
2022-07-28T12:43:21.216Z,99746.66
2022-07-28T12:45:50.878Z,99730.38
2022-07-28T12:48:20.119Z,99733.81
2022-07-28T12:50:50.673Z,99723.94
2022-07-28T12:53:22.011Z,99736.50
2022-07-28T12:55:50.379Z,99731.06
2022-07-28T12:58:26.942Z,99737.56
2022-07-28T13:00:57.024Z,99735.38
2022-07-28T13:03:26.430Z,99725.41
2022-07-28T13:06:04.912Z,99737.03
2022-07-28T13:08:44.604Z,99731.06
2022-07-28T13:11:42.089Z,99718.59
2022-07-28T13:14:02.971Z,99725.34
2022-07-28T13:16:34.568Z,99718.09
2022-07-28T13:19:05.724Z,99724.81
2022-07-28T13:21:57.595Z,99723.09
2022-07-28T13:24:28.667Z,99725.34
2022-07-28T13:26:57.332Z,99729.50
2022-07-28T13:29:25.611Z,99726.59
2022-07-28T13:31:55.881Z,99717.28
2022-07-28T13:34:24.412Z,99720.75
2022-07-28T13:36:53.289Z,99713.69
2022-07-28T13:39:21.510Z,99705.03
2022-07-28T13:41:56.929Z,99702.25
2022-07-28T13:44:26.616Z,99700.59
2022-07-28T13:46:58.989Z,99706.19
2022-07-28T13:49:28.543Z,99699.97
2022-07-28T13:51:57.198Z,99701.69
2022-07-28T13:54:26.007Z,99687.38
2022-07-28T13:56:54.276Z,99692.72
2022-07-28T13:59:22.521Z,99697.22
2022-07-28T14:01:57.617Z,99696.59
2022-07-28T14:04:26.586Z,99694.41
2022-07-28T14:06:54.871Z,99683.94
2022-07-28T14:09:23.226Z,99681.03
2022-07-28T14:11:53.267Z,99686.34
2022-07-28T14:14:24.042Z,99691.00
2022-07-28T14:16:54.410Z,99688.59
2022-07-28T14:19:38.599Z,99677.72
2022-07-28T14:22:13.102Z,99677.13
2022-07-28T14:24:42.213Z,99669.19
2022-07-28T14:27:11.127Z,99673.97
2022-07-28T14:29:39.502Z,99675.63
2022-07-28T14:32:07.939Z,99680.16
2022-07-28T14:34:39.752Z,99669.88
2022-07-28T14:37:08.805Z,99678.16
2022-07-28T14:39:38.353Z,99655.34
2022-07-28T14:42:07.006Z,99667.03
2022-07-28T14:44:35.419Z,99656.75
2022-07-28T14:47:03.769Z,99666.22
2022-07-28T14:49:31.957Z,99665.53
2022-07-28T14:52:01.671Z,99666.94
2022-07-28T14:54:29.946Z,99659.06
2022-07-28T14:56:58.188Z,99665.78
2022-07-28T14:59:26.354Z,99661.47
2022-07-28T15:01:54.568Z,99666.59
2022-07-28T15:04:22.878Z,99666.38
2022-07-28T15:06:51.505Z,99657.97
2022-07-28T15:09:21.362Z,99657.25
2022-07-28T15:11:49.459Z,99654.09
2022-07-28T15:14:20.958Z,99666.25
2022-07-28T15:16:50.193Z,99661.97
2022-07-28T15:19:18.437Z,99659.78
2022-07-28T15:21:47.651Z,99662.09
2022-07-28T15:24:16.604Z,99655.34
2022-07-28T15:26:46.572Z,99655.56
2022-07-28T15:29:14.711Z,99650.22
2022-07-28T15:31:44.020Z,99650.31
2022-07-28T15:34:13.911Z,99652.13
2022-07-28T15:36:42.366Z,99655.31
2022-07-28T15:39:14.187Z,99647.25
2022-07-28T15:41:43.353Z,99646.47
2022-07-28T15:44:16.480Z,99645.75
2022-07-28T15:46:46.628Z,99638.88
2022-07-28T15:49:15.173Z,99649.94
2022-07-28T15:51:43.370Z,99649.38
2022-07-28T15:54:11.908Z,99641.88
2022-07-28T15:56:40.272Z,99647.78
2022-07-28T15:59:08.561Z,99650.66
2022-07-28T16:01:45.251Z,99644.25
2022-07-28T16:04:14.244Z,99651.78
2022-07-28T16:07:00.186Z,99638.88
2022-07-28T16:09:45.698Z,99646.69
2022-07-28T16:12:15.185Z,99649.63
2022-07-28T16:14:43.961Z,99650.63
2022-07-28T16:17:14.115Z,99650.97
2022-07-28T16:19:50.614Z,99649.44
2022-07-28T16:22:19.351Z,99647.16
2022-07-28T16:24:48.168Z,99645.13
2022-07-28T16:27:16.373Z,99644.38
2022-07-28T16:29:44.869Z,99644.75
2022-07-28T16:32:14.590Z,99646.34
2022-07-28T16:34:42.742Z,99641.78
2022-07-28T16:37:14.726Z,99648.38
2022-07-28T16:39:45.691Z,99648.81
2022-07-28T16:42:16.087Z,99647.75
2022-07-28T16:44:44.221Z,99639.81
2022-07-28T16:47:12.421Z,99654.97
2022-07-28T16:49:45.279Z,99652.47
2022-07-28T16:52:14.273Z,99659.38
2022-07-28T16:54:42.450Z,99651.66
2022-07-28T16:57:10.643Z,99656.56
2022-07-28T16:59:45.750Z,99651.66
2022-07-28T17:02:15.881Z,99657.41
2022-07-28T17:04:45.496Z,99651.88
2022-07-28T17:07:14.142Z,99665.34
2022-07-28T17:09:42.297Z,99663.28
2022-07-28T17:12:10.585Z,99652.31
2022-07-28T17:14:38.742Z,99654.59
2022-07-28T17:17:06.880Z,99655.50
2022-07-28T17:19:35.501Z,99661.38
2022-07-28T17:22:07.151Z,99660.59
2022-07-28T17:24:35.503Z,99656.88
2022-07-28T17:29:51.814Z,99667.03
2022-07-28T17:32:20.118Z,99662.06
2022-07-28T17:34:48.254Z,99663.34
2022-07-28T17:37:17.748Z,99668.22
2022-07-28T17:39:45.947Z,99670.16
2022-07-28T17:42:14.148Z,99658.50
2022-07-28T17:44:42.255Z,99669.41
2022-07-28T17:47:10.514Z,99659.00
2022-07-28T17:49:42.195Z,99666.34
2022-07-28T17:52:13.442Z,99664.28
2022-07-28T17:55:00.730Z,99674.16
2022-07-28T17:57:30.541Z,99675.03
2022-07-28T18:00:07.842Z,99667.75
2022-07-28T18:02:37.537Z,99668.81
2022-07-28T18:05:05.778Z,99670.72
2022-07-28T18:07:48.713Z,99676.31
2022-07-28T18:10:24.881Z,99675.94
2022-07-28T18:12:55.573Z,99674.50
2022-07-28T18:15:24.547Z,99670.94
2022-07-28T18:17:55.463Z,99673.47
2022-07-28T18:20:25.247Z,99678.03
2022-07-28T18:22:53.867Z,99671.78
2022-07-28T18:25:23.516Z,99682.44
2022-07-28T18:27:51.874Z,99678.69
2022-07-28T18:30:20.465Z,99688.88
2022-07-28T18:32:48.791Z,99696.78
2022-07-28T18:35:17.410Z,99697.63
2022-07-28T18:37:46.266Z,99694.66
2022-07-28T18:40:16.302Z,99696.34
2022-07-28T18:42:46.952Z,99703.41
2022-07-28T18:45:16.241Z,99697.34
2022-07-28T18:47:47.433Z,99703.78
2022-07-28T18:50:30.232Z,99704.19
2022-07-28T18:52:59.545Z,99716.47
2022-07-28T18:55:27.740Z,99714.56
2022-07-28T18:57:57.243Z,99722.44
2022-07-28T19:00:25.456Z,99722.63
2022-07-28T19:02:53.747Z,99726.78
2022-07-28T19:05:22.029Z,99723.19
2022-07-28T19:07:50.228Z,99720.63
2022-07-28T19:10:18.397Z,99730.03
2022-07-28T19:12:48.285Z,99727.66
2022-07-28T19:15:17.845Z,99729.69
2022-07-28T19:17:45.987Z,99728.16
2022-07-28T19:20:34.680Z,99731.19
2022-07-28T19:23:05.500Z,99732.41
2022-07-28T19:25:36.421Z,99732.28
2022-07-28T19:28:08.326Z,99732.13
2022-07-28T19:30:38.161Z,99725.78
2022-07-28T19:33:07.014Z,99732.94
2022-07-28T19:35:35.461Z,99737.84
2022-07-28T19:38:03.915Z,99742.31
2022-07-28T19:40:32.391Z,99752.34
2022-07-28T19:43:00.551Z,99748.50
2022-07-28T19:45:28.717Z,99747.00
2022-07-28T19:47:58.279Z,99742.31
2022-07-28T19:50:26.491Z,99745.94
2022-07-28T19:52:54.696Z,99743.34
2022-07-28T19:55:27.049Z,99758.47
2022-07-28T19:57:59.273Z,99757.13
2022-07-28T20:00:27.633Z,99752.66
2022-07-28T20:02:57.293Z,99758.00
2022-07-28T20:05:25.652Z,99756.22
2022-07-28T20:07:54.650Z,99761.81
2022-07-28T20:10:23.319Z,99761.41
2022-07-28T20:12:51.482Z,99758.53
2022-07-28T20:15:19.679Z,99765.03
2022-07-28T20:17:47.962Z,99766.03
2022-07-28T20:20:18.013Z,99762.19
2022-07-28T20:22:47.148Z,99767.72
2022-07-28T20:25:16.679Z,99760.09
2022-07-28T20:27:44.950Z,99768.06
2022-07-28T20:30:14.570Z,99768.06
2022-07-28T20:32:44.315Z,99764.63
2022-07-28T20:35:12.864Z,99768.19
2022-07-28T20:37:42.437Z,99761.00
2022-07-28T20:40:11.528Z,99764.28
2022-07-28T20:42:39.893Z,99773.59
2022-07-28T20:45:09.141Z,99773.00
2022-07-28T20:47:37.857Z,99777.53
2022-07-28T20:50:07.175Z,99766.91
2022-07-28T20:52:35.407Z,99778.09
2022-07-28T20:55:05.890Z,99777.81
2022-07-28T20:57:34.076Z,99785.75
2022-07-28T21:00:03.956Z,99774.53
2022-07-28T21:02:32.466Z,99779.19
2022-07-28T21:05:00.644Z,99784.78
2022-07-28T21:08:05.026Z,99770.75
2022-07-28T21:10:19.453Z,99776.25
2022-07-28T21:12:47.868Z,99768.03
2022-07-28T21:15:16.135Z,99754.13
2022-07-28T21:17:44.667Z,99780.47
2022-07-28T21:20:13.605Z,99784.06
2022-07-28T21:22:41.802Z,99788.31
2022-07-28T21:25:10.727Z,99795.59
2022-07-28T21:27:57.779Z,99793.78
2022-07-28T21:30:28.301Z,99794.34
2022-07-28T21:32:56.851Z,99804.59
2022-07-28T21:35:25.307Z,99802.31
2022-07-28T21:37:53.654Z,99803.47
2022-07-28T21:40:21.973Z,99792.16
2022-07-28T21:42:52.247Z,99814.63
2022-07-28T21:45:20.823Z,99801.75
2022-07-28T21:47:49.297Z,99800.44
2022-07-28T21:50:17.633Z,99824.53
2022-07-28T21:52:45.726Z,99816.31
2022-07-28T21:55:13.918Z,99821.03
2022-07-28T21:57:42.205Z,99815.81
2022-07-28T22:00:13.510Z,99825.59
2022-07-28T22:02:42.087Z,99821.91
2022-07-28T22:05:11.326Z,99835.38
2022-07-28T22:07:39.507Z,99834.88
2022-07-28T22:10:08.560Z,99841.97
2022-07-28T22:12:36.974Z,99834.81
2022-07-28T22:15:05.615Z,99851.00
2022-07-28T22:17:35.278Z,99859.75
2022-07-28T22:20:03.502Z,99855.56
2022-07-28T22:22:31.711Z,99853.88
2022-07-28T22:24:59.952Z,99854.97
2022-07-28T22:27:28.084Z,99845.88
2022-07-28T22:29:56.325Z,99847.66
2022-07-28T22:32:26.697Z,99848.47
2022-07-28T22:34:59.179Z,99848.75
2022-07-28T22:37:27.590Z,99853.72
2022-07-28T22:39:55.860Z,99853.72
2022-07-28T22:42:24.078Z,99853.44
2022-07-28T22:44:52.245Z,99844.03
2022-07-28T22:47:20.542Z,99833.63
2022-07-28T22:49:48.775Z,99835.78
2022-07-28T22:52:18.350Z,99846.38
2022-07-28T22:54:46.607Z,99845.00
2022-07-28T22:57:15.690Z,99834.91
2022-07-28T22:59:48.025Z,99828.69
2022-07-28T23:02:19.632Z,99845.34
2022-07-28T23:04:51.559Z,99835.59
2022-07-28T23:07:50.677Z,99851.44
2022-07-28T23:10:11.810Z,99841.31
2022-07-28T23:12:40.273Z,99840.69
2022-07-28T23:15:12.391Z,99845.03
2022-07-28T23:17:40.558Z,99842.50
2022-07-28T23:20:09.402Z,99830.88
2022-07-28T23:22:39.229Z,99847.72
2022-07-28T23:25:07.913Z,99844.22
2022-07-28T23:27:36.143Z,99850.63
2022-07-28T23:30:04.983Z,99850.47
2022-07-28T23:32:33.156Z,99856.59
2022-07-28T23:35:01.281Z,99851.72
2022-07-28T23:37:30.101Z,99859.97
2022-07-28T23:39:59.635Z,99851.38
2022-07-28T23:42:27.805Z,99865.88
2022-07-28T23:44:55.917Z,99854.13
2022-07-28T23:47:24.087Z,99861.72
2022-07-28T23:49:52.228Z,99853.97
2022-07-28T23:52:20.322Z,99854.31
2022-07-28T23:54:48.457Z,99866.78
2022-07-28T23:57:17.980Z,99872.50
2022-07-28T23:59:46.186Z,99859.19
